Time;durP1;ratioP1;P1;durP2;ratioP2;P2;SDS_P1;SDS_P2;PMS_P1;PMS_P2;Temp;Humidity;BMP_temperature;BMP_pressure;BME280_temperature;BME280_humidity;BME280_pressure;Samples;Min_cycle;Max_cycle;Signal;HPM_P1;HPM_P2
2021/10/23 00:02:11;;;;;;;;;;;;;;;27.89;72.00;101201.72;5033093;28;69669;-36
2021/10/23 00:04:42;;;;;;;;;;;;;;;27.98;71.92;101216.72;5023063;28;65901;-36
2021/10/23 00:07:14;;;;;;;;;;;;;;;28.03;72.70;101219.69;5025926;28;69932;-35
2021/10/23 00:09:47;;;;;;;;;;;;;;;28.11;74.27;101232.22;5030406;28;66336;-36
2021/10/23 00:12:17;;;;;;;;;;;;;;;28.18;75.18;101237.66;5030121;28;70593;-36
2021/10/23 00:14:51;;;;;;;;;;;;;;;28.02;75.95;101236.88;5027388;28;66674;-35
2021/10/23 00:17:22;;;;;;;;;;;;;;;28.01;76.47;101254.09;5031816;28;69000;-35
2021/10/23 00:20:00;;;;;;;;;;;;;;;28.10;76.57;101245.88;5022452;28;65948;-35
2021/10/23 00:22:35;;;;;;;;;;;;;;;28.16;76.77;101248.63;5026609;28;69786;-34
2021/10/23 00:25:18;;;;;;;;;;;;;;;28.22;76.54;101253.28;5019113;28;65836;-35
2021/10/23 00:27:56;;;;;;;;;;;;;;;28.27;76.74;101256.19;5024403;28;69699;-35
2021/10/23 00:30:29;;;;;;;;;;;;;;;28.31;76.79;101258.53;5023842;28;66625;-37
2021/10/23 00:33:03;;;;;;;;;;;;;;;28.36;76.85;101261.47;5021604;28;70761;-34
2021/10/23 00:35:35;;;;;;;;;;;;;;;28.37;76.70;101263.97;5027750;28;65960;-34
2021/10/23 00:38:05;;;;;;;;;;;;;;;28.39;76.76;101267.31;5025497;28;69016;-35
2021/10/23 00:40:37;;;;;;;;;;;;;;;28.42;76.56;101255.31;5028593;28;66454;-34
2021/10/23 00:43:09;;;;;;;;;;;;;;;28.42;76.66;101253.47;5028023;28;70126;-34
2021/10/23 00:45:42;;;;;;;;;;;;;;;28.45;76.76;101263.88;5022565;28;66189;-34
2021/10/23 00:48:21;;;;;;;;;;;;;;;28.47;76.83;101264.53;5025306;28;70288;-35
2021/10/23 00:50:53;;;;;;;;;;;;;;;28.50;76.66;101266.81;5042380;28;66486;-35
2021/10/23 00:53:28;;;;;;;;;;;;;;;28.53;76.73;101271.00;5033315;28;70500;-34
2021/10/23 00:56:00;;;;;;;;;;;;;;;28.54;76.65;101275.34;5032167;28;66747;-34
2021/10/23 00:58:34;;;;;;;;;;;;;;;28.56;76.30;101281.41;5046863;28;70022;-34
2021/10/23 01:01:08;;;;;;;;;;;;;;;28.57;76.17;101282.25;5033149;28;65886;-34
2021/10/23 01:03:41;;;;;;;;;;;;;;;28.60;76.40;101273.75;5032501;28;70751;-34
2021/10/23 01:06:14;;;;;;;;;;;;;;;28.58;76.50;101276.63;5034900;28;66447;-35
2021/10/23 01:08:46;;;;;;;;;;;;;;;28.60;76.02;101281.84;5016388;28;69500;-35
2021/10/23 01:11:29;;;;;;;;;;;;;;;28.64;76.30;101283.09;5030944;28;66647;-34
2021/10/23 01:14:03;;;;;;;;;;;;;;;28.64;76.40;101283.09;5030340;28;70129;-36
2021/10/23 01:16:35;;;;;;;;;;;;;;;28.65;76.59;101290.19;5024757;28;65601;-35
2021/10/23 01:19:11;;;;;;;;;;;;;;;28.66;76.09;101289.97;5028625;28;69786;-35
2021/10/23 01:21:44;;;;;;;;;;;;;;;28.69;76.07;101294.16;5022217;28;66133;-35
2021/10/23 01:24:16;;;;;;;;;;;;;;;28.69;76.43;101294.97;5040775;28;69910;-35
2021/10/23 01:26:47;;;;;;;;;;;;;;;28.71;76.27;101292.09;5027454;28;66010;-36
2021/10/23 01:29:20;;;;;;;;;;;;;;;28.73;76.29;101306.25;5026206;28;70101;-35
2021/10/23 01:31:56;;;;;;;;;;;;;;;28.73;76.03;101307.06;5022193;28;66300;-36
2021/10/23 01:34:27;;;;;;;;;;;;;;;28.76;75.91;101305.84;5027572;28;69167;-35
2021/10/23 01:37:01;;;;;;;;;;;;;;;28.79;75.84;101304.63;5027535;28;65972;-35
2021/10/23 01:39:33;;;;;;;;;;;;;;;28.79;76.29;101315.44;5033484;28;69095;-35
2021/10/23 01:42:04;;;;;;;;;;;;;;;28.81;76.22;101314.22;5031452;28;66511;-35
2021/10/23 01:44:36;;;;;;;;;;;;;;;28.83;76.51;101317.53;5023539;28;70038;-36
2021/10/23 01:47:08;;;;;;;;;;;;;;;28.85;76.93;101320.03;5030858;28;66481;-34
2021/10/23 01:49:39;;;;;;;;;;;;;;;28.87;77.03;101321.50;5028864;28;70310;-35
2021/10/23 01:52:10;;;;;;;;;;;;;;;28.88;76.77;101320.47;5046013;28;66333;-35
2021/10/23 01:54:41;;;;;;;;;;;;;;;28.90;76.88;101317.59;5027423;28;70082;-36
2021/10/23 01:57:12;;;;;;;;;;;;;;;28.95;76.62;101321.38;4999568;28;66485;-35
2021/10/23 01:59:54;;;;;;;;;;;;;;;28.85;77.03;101295.75;5028407;28;69257;-34
2021/10/23 02:02:26;;;;;;;;;;;;;;;29.05;77.17;101317.50;5019239;28;66449;-34
2021/10/23 02:05:01;;;;;;;;;;;;;;;29.10;77.29;101323.16;5026923;28;69879;-37
2021/10/23 02:07:39;;;;;;;;;;;;;;;29.15;76.71;101324.22;5024010;28;66654;-36
2021/10/23 02:10:14;;;;;;;;;;;;;;;29.19;76.64;101321.97;5020445;28;69522;-36
2021/10/23 02:12:46;;;;;;;;;;;;;;;29.22;75.96;101321.56;5028066;28;66447;-35
2021/10/23 02:15:17;;;;;;;;;;;;;;;29.25;75.33;101326.56;5024797;28;69323;-35
2021/10/23 02:17:51;;;;;;;;;;;;;;;29.30;75.86;101313.28;5027615;28;66521;-35
2021/10/23 02:20:33;;;;;;;;;;;;;;;29.35;74.99;101313.53;5025404;28;69241;-36
2021/10/23 02:23:06;;;;;;;;;;;;;;;29.35;75.34;101305.44;5026333;28;66063;-35
2021/10/23 02:25:42;;;;;;;;;;;;;;;29.38;75.31;101315.84;5025193;28;69379;-35
2021/10/23 02:28:13;;;;;;;;;;;;;;;29.43;74.36;101311.72;5023858;28;65398;-36
2021/10/23 02:30:52;;;;;;;;;;;;;;;29.46;74.59;101316.72;5027216;28;69059;-35
2021/10/23 02:33:26;;;;;;;;;;;;;;;29.46;73.21;101306.72;5024314;28;65690;-37
2021/10/23 02:35:58;;;;;;;;;;;;;;;29.50;73.04;101317.97;5013076;28;70358;-38
2021/10/23 02:38:32;;;;;;;;;;;;;;;29.52;72.92;101311.34;5031586;28;66287;-36
2021/10/23 02:41:09;;;;;;;;;;;;;;;29.51;72.63;101306.16;5023408;28;69108;-36
2021/10/23 02:43:39;;;;;;;;;;;;;;;29.53;72.85;101301.34;5003430;28;66257;-37
2021/10/23 02:46:13;;;;;;;;;;;;;;;29.58;73.38;101304.28;5031949;28;69801;-36
2021/10/23 02:48:48;;;;;;;;;;;;;;;29.59;73.41;101301.41;5024370;28;66190;-35
2021/10/23 02:51:20;;;;;;;;;;;;;;;29.64;72.00;101292.69;5022908;28;68973;-37
2021/10/23 02:53:53;;;;;;;;;;;;;;;29.67;71.11;101292.31;5030117;28;65131;-36
2021/10/23 02:56:25;;;;;;;;;;;;;;;29.69;71.72;101289.38;5032671;28;69540;-37
2021/10/23 02:58:56;;;;;;;;;;;;;;;29.70;71.71;101286.50;5029811;28;66978;-36
2021/10/23 03:01:29;;;;;;;;;;;;;;;29.76;70.40;101274.88;5037886;28;68814;-38
2021/10/23 03:04:06;;;;;;;;;;;;;;;29.77;70.54;101275.69;5277666;23;66660;-36
2021/10/23 03:06:43;;;;;;;;;;;;;;;29.81;70.33;101272.38;5070268;27;69771;-35
2021/10/23 03:09:16;;;;;;;;;;;;;;;29.82;70.19;101274.03;5070231;27;66525;-36
2021/10/23 03:11:50;;;;;;;;;;;;;;;29.84;70.70;101269.28;5067526;27;70425;-35
2021/10/23 03:14:21;;;;;;;;;;;;;;;29.79;70.18;101269.06;5055949;28;65771;-36
2021/10/23 03:16:53;;;;;;;;;;;;;;;29.68;68.75;101266.94;5067432;27;69949;-36
2021/10/23 03:19:27;;;;;;;;;;;;;;;29.55;67.42;101273.09;5070032;28;65558;-36
2021/10/23 03:21:59;;;;;;;;;;;;;;;29.44;65.98;101270.97;5038740;28;69973;-37
2021/10/23 03:24:33;;;;;;;;;;;;;;;29.35;65.61;101262.19;5073484;28;66745;-36
2021/10/23 03:27:04;;;;;;;;;;;;;;;29.26;64.25;101254.47;5082390;27;72104;-35
2021/10/23 03:29:35;;;;;;;;;;;;;;;29.17;63.16;101251.94;5066213;28;66693;-37
2021/10/23 03:32:06;;;;;;;;;;;;;;;29.13;62.54;101253.34;5071755;27;70494;-36
2021/10/23 03:34:37;;;;;;;;;;;;;;;29.06;61.83;101257.03;5054475;28;66261;-36
2021/10/23 03:37:08;;;;;;;;;;;;;;;29.05;61.61;101249.97;5061421;27;69483;-35
2021/10/23 03:39:40;;;;;;;;;;;;;;;29.01;61.23;101243.28;5066559;28;67183;-36
2021/10/23 03:42:11;;;;;;;;;;;;;;;29.02;60.28;101242.25;5059450;28;70261;-36
2021/10/23 03:44:42;;;;;;;;;;;;;;;29.00;59.71;101241.59;5067049;27;66584;-36
2021/10/23 03:47:12;;;;;;;;;;;;;;;28.94;59.08;101235.97;5060421;27;70027;-36
2021/10/23 03:49:46;;;;;;;;;;;;;;;28.94;58.96;101233.25;5056389;27;65618;-35
2021/10/23 03:52:17;;;;;;;;;;;;;;;28.94;58.56;101233.25;5066086;28;70199;-34
2021/10/23 03:54:49;;;;;;;;;;;;;;;28.92;59.08;101229.94;5072836;28;66336;-35
2021/10/23 03:57:19;;;;;;;;;;;;;;;28.90;58.79;101215.81;5070622;28;69400;-34
2021/10/23 03:59:50;;;;;;;;;;;;;;;28.88;57.95;101215.16;5071655;27;67065;-35
2021/10/23 04:02:22;;;;;;;;;;;;;;;28.86;57.27;101219.09;5066924;28;70654;-35
2021/10/23 04:04:52;;;;;;;;;;;;;;;28.85;56.61;101212.03;5048538;28;66655;-35
2021/10/23 04:07:23;;;;;;;;;;;;;;;28.82;56.34;101205.16;5049728;28;70547;-35
2021/10/23 04:09:54;;;;;;;;;;;;;;;28.80;55.56;101204.53;5067443;28;65235;-35
2021/10/23 04:12:25;;;;;;;;;;;;;;;28.79;55.20;101192.06;5055655;28;70043;-35
2021/10/23 04:14:55;;;;;;;;;;;;;;;28.75;54.99;101190.78;5037738;28;65413;-35
2021/10/23 04:17:26;;;;;;;;;;;;;;;28.74;54.85;101183.72;5036212;28;70476;-36
2021/10/23 04:19:57;;;;;;;;;;;;;;;28.72;53.86;101175.84;5043802;28;67029;-35
2021/10/23 04:22:27;;;;;;;;;;;;;;;28.71;54.19;101167.91;5055188;28;70333;-35
2021/10/23 04:24:58;;;;;;;;;;;;;;;28.71;53.65;101157.94;5039846;28;66363;-34
2021/10/23 04:27:29;;;;;;;;;;;;;;;28.68;52.97;101152.13;5038996;28;70155;-37
2021/10/23 04:30:00;;;;;;;;;;;;;;;28.68;53.12;101147.56;5042164;28;66291;-35
2021/10/23 04:32:30;;;;;;;;;;;;;;;28.66;52.35;101144.22;5053356;28;70149;-35
2021/10/23 04:35:01;;;;;;;;;;;;;;;28.61;52.27;101141.31;5044052;28;66250;-34
2021/10/23 04:37:32;;;;;;;;;;;;;;;28.61;51.62;101144.00;5056464;28;70114;-36
2021/10/23 04:40:02;;;;;;;;;;;;;;;28.60;51.76;101144.19;5056605;28;66358;-35
2021/10/23 04:42:33;;;;;;;;;;;;;;;28.58;53.04;101138.97;5053156;28;70294;-35
2021/10/23 04:45:04;;;;;;;;;;;;;;;28.67;55.01;101128.88;5033136;28;67920;-35
2021/10/23 04:47:36;;;;;;;;;;;;;;;28.74;56.81;101124.34;5036277;28;69079;-35
2021/10/23 04:50:07;;;;;;;;;;;;;;;28.78;56.38;101112.13;5056804;28;66346;-35
2021/10/23 04:52:38;;;;;;;;;;;;;;;28.78;56.81;101104.00;5050318;28;70546;-36
2021/10/23 04:55:08;;;;;;;;;;;;;;;28.82;56.01;101099.03;5041151;28;66239;-36
2021/10/23 04:57:39;;;;;;;;;;;;;;;28.88;55.81;101092.81;5046316;28;70109;-35
2021/10/23 05:00:10;;;;;;;;;;;;;;;28.94;54.98;101092.84;5049819;28;66144;-36
2021/10/23 05:02:40;;;;;;;;;;;;;;;28.98;57.00;101087.06;5051137;28;70174;-36
2021/10/23 05:05:12;;;;;;;;;;;;;;;29.10;61.43;101091.69;5057637;28;66550;-35
2021/10/23 05:07:43;;;;;;;;;;;;;;;29.13;60.57;101085.03;5041406;28;69894;-36
2021/10/23 05:10:14;;;;;;;;;;;;;;;29.18;59.51;101077.16;5041796;28;65863;-34
2021/10/23 05:12:46;;;;;;;;;;;;;;;29.21;58.27;101071.34;5051726;28;70247;-35
2021/10/23 05:15:17;;;;;;;;;;;;;;;29.17;57.42;101064.72;5035442;28;66452;-36
2021/10/23 05:17:50;;;;;;;;;;;;;;;29.18;56.37;101061.78;5049338;28;70502;-34
2021/10/23 05:20:21;;;;;;;;;;;;;;;29.16;56.17;101057.63;5042273;28;66239;-35
2021/10/23 05:22:52;;;;;;;;;;;;;;;29.16;55.29;101044.13;5039592;28;69849;-36
2021/10/23 05:25:23;;;;;;;;;;;;;;;29.25;56.78;101045.56;5008344;28;65946;-36
2021/10/23 05:27:54;;;;;;;;;;;;;;;29.27;56.26;101054.31;5044204;28;70442;-36
2021/10/23 05:30:25;;;;;;;;;;;;;;;29.30;54.90;101042.28;5041786;28;66859;-36
2021/10/23 05:32:58;;;;;;;;;;;;;;;29.31;54.42;101036.66;5041553;28;69429;-36
2021/10/23 05:35:29;;;;;;;;;;;;;;;29.31;53.82;101033.97;5051969;27;66490;-35
2021/10/23 05:38:02;;;;;;;;;;;;;;;29.30;53.00;101032.28;5059755;27;69073;-36
2021/10/23 05:40:35;;;;;;;;;;;;;;;29.28;52.92;101028.97;5039183;28;66685;-37
2021/10/23 05:43:07;;;;;;;;;;;;;;;29.26;51.92;101033.75;5043404;28;70450;-36
2021/10/23 05:45:38;;;;;;;;;;;;;;;29.24;52.36;101021.47;5041255;28;66869;-36
2021/10/23 05:48:08;;;;;;;;;;;;;;;29.24;51.31;101019.59;5039499;28;70515;-36
2021/10/23 05:50:41;;;;;;;;;;;;;;;29.23;51.23;101009.84;5037595;28;66654;-36
2021/10/23 05:53:12;;;;;;;;;;;;;;;29.25;51.18;101007.75;5038741;28;69267;-36
2021/10/23 05:55:45;;;;;;;;;;;;;;;29.27;50.57;101002.16;5041391;28;65220;-36
2021/10/23 05:58:16;;;;;;;;;;;;;;;29.28;50.79;100996.56;5043580;28;70696;-36
2021/10/23 06:00:50;;;;;;;;;;;;;;;29.28;50.12;100991.16;5039148;28;66684;-38
2021/10/23 06:03:23;;;;;;;;;;;;;;;29.31;50.03;100985.34;5044319;28;69711;-36
2021/10/23 06:05:55;;;;;;;;;;;;;;;29.26;49.37;100971.63;5050577;28;65552;-36
2021/10/23 06:08:38;;;;;;;;;;;;;;;29.34;50.12;100976.81;5048196;28;69248;-36
2021/10/23 06:11:12;;;;;;;;;;;;;;;29.35;49.67;100981.16;5068440;28;65411;-36
2021/10/23 06:13:47;;;;;;;;;;;;;;;29.34;49.19;100971.41;5050818;28;70013;-36
2021/10/23 06:16:19;;;;;;;;;;;;;;;29.37;49.04;100970.16;5060536;27;66890;-35
2021/10/23 06:18:50;;;;;;;;;;;;;;;29.37;49.12;100960.19;5054060;28;69587;-36
2021/10/23 06:21:21;;;;;;;;;;;;;;;29.37;48.86;100952.06;5047959;28;65894;-36
2021/10/23 06:23:52;;;;;;;;;;;;;;;29.37;49.04;100946.66;5065076;28;69187;-36
2021/10/23 06:26:22;;;;;;;;;;;;;;;29.37;48.48;100945.84;5056867;28;65504;-35
2021/10/23 06:28:54;;;;;;;;;;;;;;;29.36;48.17;100939.63;5034404;28;71143;-35
2021/10/23 06:31:26;;;;;;;;;;;;;;;29.39;48.84;100939.19;5055164;27;66524;-36
2021/10/23 06:33:57;;;;;;;;;;;;;;;29.39;48.46;100933.78;5048223;28;69645;-36
2021/10/23 06:36:28;;;;;;;;;;;;;;;29.43;48.75;100938.78;5048222;28;66136;-35
2021/10/23 06:38:59;;;;;;;;;;;;;;;29.46;48.63;100939.19;5052401;28;70320;-35
2021/10/23 06:41:35;;;;;;;;;;;;;;;29.44;48.70;100930.44;5052731;28;65633;-36
2021/10/23 06:44:10;;;;;;;;;;;;;;;29.46;48.71;100919.44;5044205;28;69750;-36
2021/10/23 06:46:43;;;;;;;;;;;;;;;29.46;48.23;100932.94;5050879;28;65644;-36
2021/10/23 06:49:17;;;;;;;;;;;;;;;29.34;48.09;100906.56;5054714;28;69372;-36
2021/10/23 06:51:49;;;;;;;;;;;;;;;29.49;47.89;100919.84;5039464;28;66092;-36
2021/10/23 06:54:21;;;;;;;;;;;;;;;29.49;47.64;100910.91;5056613;28;70162;-36
2021/10/23 06:56:52;;;;;;;;;;;;;;;29.53;47.80;100902.16;5072268;27;66251;-36
2021/10/23 06:59:24;;;;;;;;;;;;;;;29.48;48.26;100887.63;5038230;28;70347;-36
2021/10/23 07:01:56;;;;;;;;;;;;;;;29.54;47.58;100889.47;5038367;28;65438;-35
2021/10/23 07:04:28;;;;;;;;;;;;;;;29.40;47.92;100862.47;5055934;28;68863;-36
2021/10/23 07:06:59;;;;;;;;;;;;;;;29.59;47.26;100879.69;5046895;28;66283;-36
2021/10/23 07:09:30;;;;;;;;;;;;;;;29.61;47.07;100871.34;5046690;28;70474;-36
2021/10/23 07:12:01;;;;;;;;;;;;;;;29.63;47.51;100855.81;5052531;28;67768;-35
2021/10/23 07:14:33;;;;;;;;;;;;;;;29.67;47.23;100853.50;5038203;28;70113;-36
2021/10/23 07:17:07;;;;;;;;;;;;;;;29.71;46.96;100838.53;5045204;28;66543;-35
2021/10/23 07:19:38;;;;;;;;;;;;;;;29.72;46.83;100841.00;5044611;28;70394;-36
2021/10/23 07:22:12;;;;;;;;;;;;;;;29.73;46.59;100848.09;5056727;28;43394;-36
2021/10/23 07:24:43;;;;;;;;;;;;;;;29.80;49.17;100832.66;5047830;28;70086;-35
2021/10/23 07:27:17;;;;;;;;;;;;;;;29.81;48.84;100839.75;5046104;28;65686;-34
2021/10/23 07:29:49;;;;;;;;;;;;;;;29.81;48.64;100828.91;5041894;28;70394;-34
2021/10/23 07:32:22;;;;;;;;;;;;;;;29.82;48.19;100827.88;5040617;28;67087;-35
2021/10/23 07:34:53;;;;;;;;;;;;;;;29.83;47.99;100825.97;5044084;28;69456;-34
2021/10/23 07:37:24;;;;;;;;;;;;;;;29.86;47.54;100830.13;5047367;28;66720;-34
2021/10/23 07:39:55;;;;;;;;;;;;;;;29.90;47.95;100815.16;5040707;28;70486;-34
2021/10/23 07:42:26;;;;;;;;;;;;;;;29.94;47.47;100819.06;5039713;28;65624;-36
2021/10/23 07:44:57;;;;;;;;;;;;;;;30.03;50.26;100825.88;5039658;28;70159;-34
2021/10/23 07:47:30;;;;;;;;;;;;;;;30.27;55.15;100830.56;5047125;28;66302;-35
2021/10/23 07:50:01;;;;;;;;;;;;;;;30.45;57.29;100829.00;5049405;28;70373;-34
2021/10/23 07:52:32;;;;;;;;;;;;;;;30.59;59.18;100819.75;5042056;28;65978;-35
2021/10/23 07:55:03;;;;;;;;;;;;;;;30.74;60.64;100827.56;5047548;28;69323;-35
2021/10/23 07:57:35;;;;;;;;;;;;;;;30.82;61.89;100830.00;5046358;28;65508;-35
2021/10/23 08:00:07;;;;;;;;;;;;;;;30.92;61.81;100829.50;5048005;28;69782;-35
2021/10/23 08:02:57;;;;;;;;;;;;;;;30.96;62.19;100819.91;5053028;28;66659;-36
2021/10/23 08:05:33;;;;;;;;;;;;;;;31.01;62.69;100809.22;5052119;28;70475;-36
2021/10/23 08:08:04;;;;;;;;;;;;;;;31.09;62.34;100811.66;5061274;28;66361;-36
2021/10/23 08:10:37;;;;;;;;;;;;;;;31.24;61.28;100813.16;5050392;28;69467;-36
2021/10/23 08:13:07;;;;;;;;;;;;;;;31.33;60.79;100809.09;5049883;28;66583;-36
2021/10/23 08:15:41;;;;;;;;;;;;;;;31.34;61.48;100799.91;5044807;28;69594;-34
2021/10/23 08:18:11;;;;;;;;;;;;;;;31.36;62.78;100801.38;5038255;28;65354;-36
2021/10/23 08:20:42;;;;;;;;;;;;;;;31.39;63.36;100787.34;5036289;28;69347;-36
2021/10/23 08:23:13;;;;;;;;;;;;;;;31.39;64.13;100781.94;5038228;28;65507;-35
2021/10/23 08:25:44;;;;;;;;;;;;;;;31.42;64.30;100777.94;5050669;28;69249;-36
2021/10/23 08:28:14;;;;;;;;;;;;;;;31.43;64.34;100781.50;5052210;28;66295;-35
2021/10/23 08:30:45;;;;;;;;;;;;;;;31.45;64.29;100771.25;5045396;28;70066;-36
2021/10/23 08:33:18;;;;;;;;;;;;;;;31.47;64.59;100780.81;5046936;28;65912;-35
2021/10/23 08:35:48;;;;;;;;;;;;;;;31.48;65.00;100790.63;5043328;28;70722;-36
2021/10/23 08:38:19;;;;;;;;;;;;;;;31.54;64.95;100805.97;5053954;28;65808;-36
2021/10/23 08:40:52;;;;;;;;;;;;;;;31.52;65.79;100802.66;5052284;28;69846;-35
2021/10/23 08:43:24;;;;;;;;;;;;;;;31.53;65.43;100806.19;5049711;28;65661;-36
2021/10/23 08:45:57;;;;;;;;;;;;;;;31.55;66.23;100802.19;5045520;28;70513;-37
2021/10/23 08:48:27;;;;;;;;;;;;;;;31.57;66.24;100797.38;5046195;28;66173;-35
2021/10/23 08:51:02;;;;;;;;;;;;;;;31.55;66.66;100788.66;5046363;28;70052;-36
2021/10/23 08:53:41;;;;;;;;;;;;;;;31.65;65.27;100787.28;5049963;28;66447;-36
2021/10/23 08:56:12;;;;;;;;;;;;;;;31.65;65.72;100784.56;5048111;28;70095;-36
2021/10/23 08:58:43;;;;;;;;;;;;;;;31.68;66.20;100778.69;5049263;28;66062;-38
2021/10/23 09:01:15;;;;;;;;;;;;;;;31.77;63.88;100794.41;5057106;28;70201;-36
2021/10/23 09:03:49;;;;;;;;;;;;;;;31.80;63.77;100801.28;5048130;28;65860;-37
2021/10/23 09:06:33;;;;;;;;;;;;;;;31.88;63.83;100806.38;5048133;28;69391;-36
2021/10/23 09:09:11;;;;;;;;;;;;;;;31.94;63.91;100821.78;5056016;28;66772;-37
2021/10/23 09:11:43;;;;;;;;;;;;;;;31.98;63.19;100809.41;5047349;28;70286;-37
2021/10/23 09:14:20;;;;;;;;;;;;;;;32.04;63.08;100819.34;5046726;28;66629;-37
2021/10/23 09:17:10;;;;;;;;;;;;;;;32.04;63.33;100805.78;5053571;28;68969;-37
2021/10/23 09:19:46;;;;;;;;;;;;;;;32.08;64.87;100810.75;5050952;28;66728;-37
2021/10/23 09:22:25;;;;;;;;;;;;;;;32.09;64.81;100801.53;5045764;28;70229;-36
2021/10/23 09:25:14;;;;;;;;;;;;;;;32.10;64.40;100805.94;5053267;27;66281;-37
2021/10/23 09:28:03;;;;;;;;;;;;;;;32.09;65.51;100796.09;5069859;28;69677;-37
2021/10/23 09:30:42;;;;;;;;;;;;;;;32.09;65.99;100796.94;5067418;28;66188;-36
2021/10/23 09:33:18;;;;;;;;;;;;;;;32.12;66.03;100817.34;5068681;28;70412;-37
2021/10/23 09:35:52;;;;;;;;;;;;;;;32.15;66.13;100833.16;5056273;28;66110;-37
2021/10/23 09:38:23;;;;;;;;;;;;;;;32.16;65.97;100837.56;5059217;28;69210;-37
2021/10/23 09:40:55;;;;;;;;;;;;;;;32.15;65.79;100852.16;5047130;28;65202;-36
2021/10/23 09:43:29;;;;;;;;;;;;;;;32.08;66.08;100851.44;5052783;28;70410;-36
2021/10/23 09:46:02;;;;;;;;;;;;;;;32.03;65.84;100863.81;5059811;27;66135;-37
2021/10/23 09:48:44;;;;;;;;;;;;;;;31.98;66.32;100866.41;5061058;28;69731;-37
2021/10/23 09:51:21;;;;;;;;;;;;;;;31.96;67.04;100887.50;5066569;28;66957;-38
2021/10/23 09:53:57;;;;;;;;;;;;;;;31.96;67.66;100901.06;5042906;28;69452;-37
2021/10/23 09:56:35;;;;;;;;;;;;;;;31.93;68.65;100889.81;5045867;28;66723;-37
2021/10/23 09:59:07;;;;;;;;;;;;;;;31.93;70.09;100885.25;5049514;28;69365;-37
2021/10/23 10:01:42;;;;;;;;;;;;;;;31.89;70.34;100881.28;5048595;28;66555;-38
2021/10/23 10:04:15;;;;;;;;;;;;;;;31.86;70.81;100876.31;5045457;28;70140;-38
2021/10/23 10:06:49;;;;;;;;;;;;;;;31.85;70.66;100884.69;5059496;28;65423;-38
2021/10/23 10:09:20;;;;;;;;;;;;;;;31.84;71.33;100891.97;5059233;28;70661;-37
2021/10/23 10:11:53;;;;;;;;;;;;;;;31.79;71.24;100899.97;5054334;28;65287;-38
2021/10/23 10:14:27;;;;;;;;;;;;;;;31.76;71.45;100889.56;5056765;28;70646;-38
2021/10/23 10:16:58;;;;;;;;;;;;;;;31.75;71.92;100877.88;5050026;28;65517;-37
2021/10/23 10:19:29;;;;;;;;;;;;;;;31.72;71.84;100886.47;5060796;28;68159;-36
2021/10/23 10:22:18;;;;;;;;;;;;;;;31.68;72.44;100884.44;5054172;28;65987;-38
2021/10/23 10:24:49;;;;;;;;;;;;;;;31.69;72.40;100895.06;5058670;28;69451;-38
2021/10/23 10:27:20;;;;;;;;;;;;;;;31.65;72.74;100925.56;5050491;28;66410;-37
2021/10/23 10:29:58;;;;;;;;;;;;;;;31.65;72.61;100947.25;5056497;28;69381;-36
2021/10/23 10:32:41;;;;;;;;;;;;;;;31.65;72.70;100974.38;5048127;28;66087;-38
2021/10/23 10:43:14;;;;;;;;;;;;;;;31.49;73.38;101041.69;5066886;28;66917;-37
2021/10/23 10:45:47;;;;;;;;;;;;;;;31.42;73.39;101040.91;5057538;28;69033;-37
2021/10/23 10:48:34;;;;;;;;;;;;;;;31.38;73.54;101045.09;5051756;28;66689;-38
2021/10/23 10:51:05;;;;;;;;;;;;;;;31.33;74.14;101058.47;5061747;28;69172;-38
2021/10/23 10:53:56;;;;;;;;;;;;;;;31.29;73.88;101063.50;5041457;28;67443;-37
2021/10/23 10:56:40;;;;;;;;;;;;;;;31.24;74.17;101092.31;5037674;28;69396;-37
2021/10/23 10:59:12;;;;;;;;;;;;;;;30.95;74.64;101051.19;5052608;28;66756;-37
2021/10/23 11:02:03;;;;;;;;;;;;;;;31.18;74.37;101061.47;5051498;27;69574;-38
2021/10/23 11:04:33;;;;;;;;;;;;;;;31.12;74.24;101030.66;5042061;28;65672;-38
2021/10/23 11:07:04;;;;;;;;;;;;;;;31.08;74.01;101026.72;5054571;28;69935;-38
2021/10/23 11:09:39;;;;;;;;;;;;;;;31.02;74.12;101024.88;5052887;28;66744;-38
2021/10/23 11:12:14;;;;;;;;;;;;;;;30.97;74.19;101016.56;5064891;28;69356;-38
2021/10/23 11:14:45;;;;;;;;;;;;;;;30.95;73.96;101024.09;5060219;28;65493;-37
2021/10/23 11:17:18;;;;;;;;;;;;;;;30.91;74.37;101039.94;5042176;28;68848;-38
2021/10/23 11:19:53;;;;;;;;;;;;;;;30.90;74.36;101048.31;5047187;28;66519;-38
2021/10/23 11:22:27;;;;;;;;;;;;;;;30.84;74.35;101060.84;5047677;28;70729;-37
2021/10/23 11:25:05;;;;;;;;;;;;;;;30.81;74.40;101065.84;5048803;28;65708;-38
2021/10/23 11:27:37;;;;;;;;;;;;;;;30.77;73.99;101076.25;5049250;28;70010;-38
2021/10/23 11:30:31;;;;;;;;;;;;;;;30.77;74.22;101080.84;5054420;28;66462;-38
2021/10/23 11:33:09;;;;;;;;;;;;;;;30.71;74.35;101082.53;5050472;28;70370;-37
2021/10/23 11:35:47;;;;;;;;;;;;;;;30.71;75.08;101093.34;5047947;28;66805;-38
2021/10/23 11:38:20;;;;;;;;;;;;;;;30.67;74.79;101097.53;5047900;28;69805;-38
2021/10/23 11:40:58;;;;;;;;;;;;;;;30.63;75.17;101097.13;5046449;28;66272;-38
2021/10/23 11:43:30;;;;;;;;;;;;;;;30.63;75.36;101097.13;5052733;28;69525;-38
2021/10/23 11:46:13;;;;;;;;;;;;;;;30.60;74.92;101102.97;5049378;28;65602;-38
2021/10/23 11:49:03;;;;;;;;;;;;;;;30.58;75.38;101113.19;5066384;28;69948;-38
2021/10/23 11:51:34;;;;;;;;;;;;;;;30.57;75.19;101108.81;5065252;27;66277;-38
2021/10/23 11:54:07;;;;;;;;;;;;;;;30.53;75.74;101104.03;5051114;28;70482;-37
2021/10/23 11:56:47;;;;;;;;;;;;;;;30.50;75.53;101106.09;5065564;28;65251;-37
2021/10/23 11:59:23;;;;;;;;;;;;;;;30.50;75.62;101116.09;5048077;28;70257;-37
2021/10/23 12:01:54;;;;;;;;;;;;;;;30.49;75.55;101128.00;5058298;28;66444;-37
2021/10/23 12:04:31;;;;;;;;;;;;;;;30.46;75.25;101144.66;5059758;28;69156;-36
2021/10/23 12:07:29;;;;;;;;;;;;;;;30.44;75.81;101152.16;5050453;28;66242;-36
2021/10/23 12:10:18;;;;;;;;;;;;;;;30.43;75.76;101158.63;5053188;28;69266;-38
2021/10/23 12:12:50;;;;;;;;;;;;;;;30.42;75.54;101154.22;5046843;28;65855;-38
2021/10/23 12:15:31;;;;;;;;;;;;;;;30.41;75.75;101160.69;5039459;28;70179;-36
2021/10/23 12:18:10;;;;;;;;;;;;;;;30.38;75.50;101158.41;5046583;28;65666;-36
2021/10/23 12:21:15;;;;;;;;;;;;;;;30.38;75.39;101150.28;5045970;28;69754;-36
2021/10/23 12:23:56;;;;;;;;;;;;;;;30.34;75.28;101147.19;5037631;28;65497;-36
2021/10/23 12:26:30;;;;;;;;;;;;;;;30.33;76.00;101158.22;5064779;28;70499;-36
2021/10/23 12:29:10;;;;;;;;;;;;;;;30.31;75.90;101157.56;5036487;28;66528;-36
2021/10/23 12:32:05;;;;;;;;;;;;;;;30.31;75.61;101176.53;5057213;28;69709;-36
2021/10/23 12:34:50;;;;;;;;;;;;;;;30.26;75.13;101194.22;5052015;28;66577;-36
2021/10/23 12:37:27;;;;;;;;;;;;;;;30.26;75.74;101194.22;5058269;28;70350;-36
2021/10/23 12:40:05;;;;;;;;;;;;;;;30.25;75.67;101203.38;5046182;28;66464;-36
2021/10/23 12:42:43;;;;;;;;;;;;;;;30.25;75.79;101207.97;5060768;28;69795;-37
2021/10/23 12:45:31;;;;;;;;;;;;;;;30.20;76.17;101211.28;5066216;27;65485;-35
2021/10/23 12:48:20;;;;;;;;;;;;;;;30.21;75.66;101215.63;5050966;28;69926;-36
2021/10/23 12:50:58;;;;;;;;;;;;;;;30.15;76.16;101219.19;5052363;28;67393;-36
2021/10/23 12:53:54;;;;;;;;;;;;;;;30.16;76.14;101210.00;5049789;28;70129;-36
2021/10/23 12:56:25;;;;;;;;;;;;;;;30.18;76.25;101213.34;5047819;28;66691;-36
2021/10/23 12:59:11;;;;;;;;;;;;;;;30.08;74.87;101231.84;5052145;28;69385;-36
2021/10/23 13:01:56;;;;;;;;;;;;;;;29.95;73.16;101253.47;5044548;28;67129;-35
2021/10/23 13:04:29;;;;;;;;;;;;;;;29.83;72.47;101256.78;5041337;28;70001;-36
2021/10/23 13:07:19;;;;;;;;;;;;;;;29.73;70.78;101255.53;5034858;28;66515;-35
2021/10/23 13:10:02;;;;;;;;;;;;;;;29.63;70.15;101258.59;5047017;28;70942;-36
2021/10/23 13:12:48;;;;;;;;;;;;;;;29.50;69.46;101261.22;5016831;28;66691;-35
2021/10/23 13:15:44;;;;;;;;;;;;;;;29.42;67.76;101255.97;5051475;28;70457;-35
2021/10/23 13:18:37;;;;;;;;;;;;;;;29.40;67.75;101242.69;5041861;28;66415;-36
2021/10/23 13:21:35;;;;;;;;;;;;;;;29.32;67.17;101238.28;5051259;28;70494;-36